Cape Cod CGAS, MA

1:33 AM EDT on September 22, 2017 (GMT -0400)
Cape Cod Coast Guard Air Station

Weather History for KFMH - September, 2013

Change the Weather History Date:

Sunday, September 8, 2013

  Actual Average Record
Temperature  
Mean Temperature 65 °F -  
Max Temperature 77 °F 72 °F 86 °F (2015)
Min Temperature 53 °F 55 °F 35 °F (1999)
Growing Degree Days 15 (Base 50)    
Moisture  
Dew Point 55 °F    
Average Humidity 69    
Maximum Humidity 94    
Minimum Humidity 46    
Precipitation  
Precipitation 0.00 in - - ()
Sea Level Pressure  
Sea Level Pressure 29.86 in    
Wind  
Wind Speed 11 mph (WNW)    
Max Wind Speed 21 mph    
Max Gust Speed 29 mph    
Visibility 10 miles    
Events      
Averages and records for this station are not official NWS values.
T = Trace of Precipitation, MM = Missing Value Source: NWS Daily Summary

Daily Weather History Graph

Daily Weather History Graph

Search for Another Location

Airport or City:

Trip Planner

Search our weather history database for the weather conditions in past years. The results will help you decide how hot, cold, wet, or windy it might be!

Date:

Astronomy

Sep. 08, 2013 Rise Set
Actual Time 6:15 AM EDT 7:03 PM EDT
Civil Twilight 5:47 AM EDT 7:31 PM EDT
Nautical Twilight 5:13 AM EDT 8:04 PM EDT
Astronomical Twilight 4:39 AM EDT 8:39 PM EDT
Moon 9:32 AM EDT (9/8) 8:32 PM EDT (9/8)
Length of Visible Light 13h 44m
Length of Day
12h 47m
Waxing Crescent, 11% of the Moon is Illuminated
Sep 8
Waxing Crescent
Sep 12
First Quarter
Sep 19
Full
Sep 26
Last Quarter
Oct 4
New

Hourly Weather History & Observations

Time (EDT) Temp. Dew Point Humidity Pressure Visibility Wind Dir Wind Speed Gust Speed Precip Events Conditions
12:15 AM 64.4 °F 57.2 °F 77% 29.89 in 10.0 mi WSW 10.4 mph - N/A   Overcast
12:35 AM 64.4 °F 57.2 °F 77% 29.89 in 10.0 mi WSW 11.5 mph - N/A   Overcast
12:55 AM 64.4 °F 57.2 °F 77% 29.89 in 10.0 mi WSW 11.5 mph - N/A   Overcast
1:15 AM 64.4 °F 57.2 °F 77% 29.88 in 10.0 mi WSW 9.2 mph - N/A   Overcast
1:35 AM 64.4 °F 57.2 °F 77% 29.87 in 10.0 mi WSW 12.7 mph - N/A   Overcast
1:55 AM 64.4 °F 59.0 °F 83% 29.86 in 10.0 mi WSW 10.4 mph - N/A   Overcast
2:15 AM 64.4 °F 59.0 °F 83% 29.86 in 10.0 mi WSW 10.4 mph - N/A   Overcast
2:35 AM 64.4 °F 59.0 °F 83% 29.86 in 10.0 mi WSW 10.4 mph 16.1 mph N/A   Mostly Cloudy
2:55 AM 64.4 °F 59.0 °F 83% 29.86 in 10.0 mi WSW 11.5 mph - N/A   Overcast
3:15 AM 64.4 °F 59.0 °F 83% 29.85 in 10.0 mi WSW 9.2 mph - N/A   Overcast
3:35 AM 64.4 °F 59.0 °F 83% 29.84 in 10.0 mi WSW 8.1 mph - N/A   Overcast
3:55 AM 64.4 °F 59.0 °F 83% 29.84 in 10.0 mi WSW 10.4 mph - N/A   Overcast
4:15 AM 64.4 °F 60.8 °F 88% 29.83 in 10.0 mi SW 9.2 mph - N/A   Overcast
4:35 AM 64.4 °F 60.8 °F 88% 29.82 in 10.0 mi SW 10.4 mph - N/A   Overcast
4:55 AM 64.4 °F 60.8 °F 88% 29.80 in 10.0 mi SW 8.1 mph - N/A   Overcast
5:15 AM 66.2 °F 60.8 °F 83% 29.80 in 10.0 mi SW 10.4 mph - N/A   Overcast
5:35 AM 66.2 °F 60.8 °F 83% 29.81 in 10.0 mi WSW 8.1 mph - N/A   Overcast
5:55 AM 64.4 °F 60.8 °F 88% 29.81 in 10.0 mi WSW 9.2 mph - N/A   Overcast
6:15 AM 64.4 °F 62.6 °F 94% 29.80 in 10.0 mi SW 9.2 mph - N/A   Mostly Cloudy
6:35 AM 64.4 °F 62.6 °F 94% 29.80 in 10.0 mi SW 9.2 mph - N/A   Clear
6:55 AM 64.4 °F 62.6 °F 94% 29.79 in 10.0 mi SW 9.2 mph - N/A   Clear
7:15 AM 66.2 °F 62.6 °F 88% 29.79 in 10.0 mi WSW 9.2 mph - N/A   Clear
7:35 AM 68.0 °F 62.6 °F 83% 29.79 in 10.0 mi WSW 11.5 mph - N/A   Clear
7:55 AM 68.0 °F 62.6 °F 83% 29.78 in 10.0 mi WSW 13.8 mph 17.3 mph N/A   Clear
8:15 AM 69.8 °F 62.6 °F 78% 29.79 in 10.0 mi West 13.8 mph - N/A   Partly Cloudy
8:35 AM 69.8 °F 62.6 °F 78% 29.78 in 10.0 mi West 13.8 mph 20.7 mph N/A   Partly Cloudy
8:55 AM 71.6 °F 60.8 °F 69% 29.78 in 10.0 mi West 16.1 mph - N/A   Partly Cloudy
9:15 AM 71.6 °F 60.8 °F 69% 29.77 in 10.0 mi West 15.0 mph - N/A   Partly Cloudy
9:35 AM 71.6 °F 62.6 °F 73% 29.77 in 10.0 mi West 13.8 mph - N/A   Partly Cloudy
9:55 AM 71.6 °F 60.8 °F 69% 29.77 in 10.0 mi WSW 17.3 mph - N/A   Mostly Cloudy
10:15 AM 69.8 °F 60.8 °F 73% 29.77 in 10.0 mi WSW 12.7 mph 20.7 mph N/A   Overcast
10:35 AM 71.6 °F 62.6 °F 73% 29.77 in 10.0 mi West 12.7 mph - N/A   Mostly Cloudy
10:55 AM 73.4 °F 62.6 °F 69% 29.76 in 10.0 mi West 11.5 mph 18.4 mph N/A   Mostly Cloudy
11:15 AM 73.4 °F 60.8 °F 65% 29.76 in 10.0 mi West 13.8 mph - N/A   Unknown
11:35 AM 73.4 °F 60.8 °F 65% 29.76 in 10.0 mi West 12.7 mph - N/A   Partly Cloudy
11:55 AM 75.2 °F 62.6 °F 65% 29.76 in 10.0 mi West 11.5 mph - N/A   Clear
12:15 PM 75.2 °F 62.6 °F 65% 29.76 in 10.0 mi West 12.7 mph 18.4 mph N/A   Clear
12:35 PM 77.0 °F 60.8 °F 57% 29.76 in 10.0 mi WNW 13.8 mph 21.9 mph N/A   Mostly Cloudy
12:55 PM 77.0 °F 62.6 °F 61% 29.76 in 10.0 mi West 10.4 mph - N/A   Mostly Cloudy
1:15 PM 75.2 °F 60.8 °F 61% 29.77 in 10.0 mi NW 12.7 mph 17.3 mph N/A   Unknown
1:35 PM 75.2 °F 60.8 °F 61% 29.77 in 9.0 mi NW 12.7 mph - N/A   Overcast
1:55 PM 77.0 °F 59.0 °F 54% 29.77 in 10.0 mi NW 9.2 mph - N/A   Overcast
2:15 PM 75.2 °F 59.0 °F 57% 29.77 in 10.0 mi NW 11.5 mph 18.4 mph N/A   Overcast
2:35 PM 77.0 °F 59.0 °F 54% 29.77 in 10.0 mi NW 11.5 mph 16.1 mph N/A   Scattered Clouds
2:55 PM 69.8 °F 59.0 °F 68% 29.79 in 10.0 mi NNE 11.5 mph 24.2 mph N/A   Mostly Cloudy
3:15 PM 68.0 °F 59.0 °F 73% 29.80 in 10.0 mi NNE 11.5 mph 17.3 mph N/A   Overcast
3:35 PM 69.8 °F 57.2 °F 64% 29.81 in 10.0 mi North 12.7 mph 17.3 mph N/A   Mostly Cloudy
3:55 PM 71.6 °F 55.4 °F 57% 29.81 in 10.0 mi NNE 11.5 mph 28.8 mph N/A   Clear
4:15 PM 68.0 °F 53.6 °F 60% 29.82 in 10.0 mi NNE 12.7 mph 23.0 mph N/A   Mostly Cloudy
4:35 PM 69.8 °F 50.0 °F 49% 29.83 in 10.0 mi NNE 20.7 mph 27.6 mph N/A   Scattered Clouds
4:55 PM 68.0 °F 48.2 °F 49% 29.84 in 10.0 mi North 9.2 mph 20.7 mph N/A   Partly Cloudy
5:15 PM 68.0 °F 46.4 °F 46% 29.86 in 10.0 mi NNE 12.7 mph 19.6 mph N/A   Clear
5:35 PM 66.2 °F 48.2 °F 52% 29.87 in 10.0 mi NNE 10.4 mph - N/A   Clear
5:55 PM 66.2 °F 50.0 °F 56% 29.88 in 10.0 mi NE 16.1 mph 21.9 mph N/A   Clear
6:15 PM 64.4 °F 48.2 °F 56% 29.90 in 10.0 mi NNE 10.4 mph 20.7 mph N/A   Clear
6:35 PM 62.6 °F 50.0 °F 63% 29.91 in 10.0 mi NNE 13.8 mph 23.0 mph N/A   Clear
6:55 PM 62.6 °F 48.2 °F 59% 29.92 in 10.0 mi North 11.5 mph 21.9 mph N/A   Clear
7:15 PM 60.8 °F 46.4 °F 59% 29.93 in 10.0 mi North 11.5 mph 18.4 mph N/A   Clear
7:35 PM 60.8 °F 44.6 °F 55% 29.95 in 10.0 mi North 10.4 mph 19.6 mph N/A   Clear
7:55 PM 59.0 °F 44.6 °F 59% 29.97 in 10.0 mi NNE 8.1 mph - N/A   Clear
8:15 PM 59.0 °F 44.6 °F 59% 29.99 in 10.0 mi NNE 8.1 mph - N/A   Clear
8:35 PM 59.0 °F 46.4 °F 63% 30.01 in 10.0 mi North 6.9 mph - N/A   Clear
8:55 PM 59.0 °F 44.6 °F 59% 30.02 in 10.0 mi North 5.8 mph - N/A   Clear
9:15 PM 57.2 °F 42.8 °F 59% 30.03 in 10.0 mi North 10.4 mph 17.3 mph N/A   Clear
9:35 PM 57.2 °F 39.2 °F 51% 30.04 in 10.0 mi North 9.2 mph 17.3 mph N/A   Clear
9:55 PM 57.2 °F 39.2 °F 51% 30.05 in 10.0 mi North 8.1 mph 17.3 mph N/A   Clear
10:15 PM 57.2 °F 41.0 °F 55% 30.06 in 10.0 mi North 9.2 mph - N/A   Clear
10:35 PM 57.2 °F 41.0 °F 55% 30.07 in 10.0 mi North 5.8 mph - N/A   Clear
10:55 PM 55.4 °F 41.0 °F 58% 30.07 in 10.0 mi North 8.1 mph - N/A   Clear
11:15 PM 55.4 °F 41.0 °F 58% 30.08 in 10.0 mi North 6.9 mph - N/A   Clear
11:35 PM 53.6 °F 41.0 °F 62% 30.08 in 10.0 mi North 4.6 mph - N/A   Clear
11:55 PM 53.6 °F 41.0 °F 62% 30.09 in 10.0 mi North 4.6 mph - N/A   Clear